Time;durP1;ratioP1;P1;durP2;ratioP2;P2;SDS_P1;SDS_P2;PMS_P1;PMS_P2;Temp;Humidity;BMP_temperature;BMP_pressure;BME280_temperature;BME280_humidity;BME280_pressure;Samples;Min_cycle;Max_cycle;Signal;HPM_P1;HPM_P2
2022/09/30 00:02:40;;;;;;;34.17;17.02;;;;;;;7.27;94.81;98553.19;8408653;28;20044;-80
2022/09/30 00:06:41;;;;;;;32.60;17.85;;;;;;;7.24;95.13;98564.56;8414900;28;20620;-81
2022/09/30 00:10:42;;;;;;;39.15;19.02;;;;;;;7.18;95.29;98567.34;8410810;28;20533;-80
2022/09/30 00:14:43;;;;;;;32.70;19.08;;;;;;;7.16;95.61;98574.09;8404277;28;20055;-80
2022/09/30 00:18:44;;;;;;;37.58;19.88;;;;;;;7.13;95.84;98575.50;8400262;28;20502;-80
2022/09/30 00:22:45;;;;;;;33.72;18.92;;;;;;;7.14;95.59;98582.44;8418515;28;20067;-81
2022/09/30 00:26:46;;;;;;;42.60;21.20;;;;;;;7.16;95.73;98588.31;8412178;28;20383;-81
2022/09/30 00:30:47;;;;;;;41.13;21.33;;;;;;;7.16;95.80;98596.38;8416741;28;20045;-81
2022/09/30 00:34:48;;;;;;;39.03;20.58;;;;;;;7.16;95.81;98601.75;8415297;28;20056;-79
2022/09/30 00:38:49;;;;;;;36.42;21.10;;;;;;;7.14;96.03;98601.25;8414906;28;20040;-80
2022/09/30 00:42:50;;;;;;;44.67;21.23;;;;;;;7.14;96.04;98597.75;8405820;28;20045;-80
2022/09/30 00:46:51;;;;;;;39.88;22.60;;;;;;;7.14;96.31;98603.91;8397975;28;20486;-80
2022/09/30 00:50:54;;;;;;;37.35;21.88;;;;;;;7.15;96.54;98605.53;8408481;28;20044;-80
2022/09/30 00:54:57;;;;;;;45.25;23.05;;;;;;;7.16;96.65;98617.84;8410692;28;20040;-80
2022/09/30 00:59:06;;;;;;;47.60;22.90;;;;;;;7.14;96.66;98614.66;8417639;28;20040;-80
2022/09/30 01:03:07;;;;;;;39.92;21.98;;;;;;;7.12;96.68;98622.25;8399688;28;20072;-80
2022/09/30 01:07:08;;;;;;;39.35;21.27;;;;;;;7.10;96.78;98616.34;8414648;28;20054;-80
2022/09/30 01:11:11;;;;;;;42.35;21.90;;;;;;;7.09;96.96;98617.44;8400808;28;20041;-81
2022/09/30 01:15:12;;;;;;;40.90;23.55;;;;;;;7.09;97.06;98617.44;8415014;28;20036;-80
2022/09/30 01:19:31;;;;;;;45.70;23.67;;;;;;;7.12;97.15;98627.59;8407026;28;20382;-80
2022/09/30 01:23:41;;;;;;;45.42;24.80;;;;;;;7.15;97.01;98631.56;8416180;28;20041;-80
2022/09/30 01:28:00;;;;;;;44.55;24.92;;;;;;;7.18;97.12;98626.44;8420942;28;20138;-80
2022/09/30 01:32:08;;;;;;;50.53;25.95;;;;;;;7.21;97.25;98625.81;8396439;28;20044;-80
2022/09/30 01:36:27;;;;;;;47.92;25.17;;;;;;;7.25;97.23;98630.56;8409108;28;20656;-79
2022/09/30 01:40:53;;;;;;;45.53;24.00;;;;;;;7.31;97.15;98624.03;8403862;28;20048;-80
2022/09/30 01:45:02;;;;;;;53.80;24.70;;;;;;;7.38;97.06;98621.75;8386075;28;20429;-80
2022/09/30 01:49:06;;;;;;;45.08;24.80;;;;;;;7.45;97.16;98608.72;8411720;28;20131;-80
2022/09/30 01:53:37;;;;;;;45.22;23.50;;;;;;;7.52;97.35;98609.09;8401051;28;20070;-80
2022/09/30 01:57:57;;;;;;;45.25;24.50;;;;;;;7.58;97.29;98614.06;8291862;28;20056;-80
2022/09/30 02:02:03;;;;;;;41.70;22.80;;;;;;;7.61;97.45;98608.06;8286460;28;20558;-81
2022/09/30 02:06:10;;;;;;;42.10;22.23;;;;;;;7.63;97.59;98607.78;8292238;28;20042;-79
2022/09/30 02:10:22;;;;;;;37.85;20.50;;;;;;;7.65;98.09;98602.91;8280514;28;20055;-80
2022/09/30 02:14:31;;;;;;;41.28;23.73;;;;;;;7.68;98.27;98613.03;8286027;28;20054;-80
2022/09/30 02:18:39;;;;;;;43.15;22.73;;;;;;;7.70;98.11;98610.84;8291394;28;20058;-80
2022/09/30 02:22:43;;;;;;;48.08;22.83;;;;;;;7.73;98.14;98615.63;8291508;28;20042;-79
2022/09/30 02:26:46;;;;;;;42.10;22.70;;;;;;;7.76;98.29;98609.66;8280010;28;20056;-81
2022/09/30 02:30:52;;;;;;;48.05;23.05;;;;;;;7.79;98.38;98614.41;8279190;28;20046;-80
2022/09/30 02:34:58;;;;;;;46.22;24.48;;;;;;;7.82;98.39;98613.03;8394210;28;20040;-80
2022/09/30 02:39:03;;;;;;;39.75;22.42;;;;;;;7.83;98.27;98610.03;8406828;28;20470;-80
2022/09/30 02:43:04;;;;;;;39.75;23.02;;;;;;;7.84;98.52;98606.25;8406879;28;20044;-81
2022/09/30 02:47:10;;;;;;;51.65;22.75;;;;;;;7.84;98.52;98611.63;8405809;28;20413;-81
2022/09/30 02:51:11;;;;;;;36.85;21.05;;;;;;;7.82;98.56;98613.84;8412059;28;20378;-80
2022/09/30 02:55:20;;;;;;;50.33;23.17;;;;;;;7.80;98.81;98610.63;8406215;28;20041;-80
2022/09/30 02:59:22;;;;;;;42.17;23.73;;;;;;;7.78;98.85;98623.56;8409007;28;20154;-80
2022/09/30 03:03:27;;;;;;;41.20;22.63;;;;;;;7.77;99.10;98616.63;8400419;28;20052;-80
2022/09/30 03:07:30;;;;;;;45.33;23.30;;;;;;;7.77;99.34;98627.38;8411996;28;20049;-80
2022/09/30 03:11:31;;;;;;;42.75;22.98;;;;;;;7.77;99.42;98626.59;8393779;28;20048;-80
2022/09/30 03:16:07;;;;;;;40.10;20.60;;;;;;;7.75;99.50;98634.94;8398254;28;20063;-80
2022/09/30 03:20:11;;;;;;;47.58;21.73;;;;;;;7.75;99.63;98637.63;8314621;28;20144;-80
2022/09/30 03:24:35;;;;;;;47.80;23.00;;;;;;;7.75;99.74;98637.63;8322640;28;20057;-80
2022/09/30 03:28:51;;;;;;;40.40;22.33;;;;;;;7.76;99.86;98636.53;8235375;28;20059;-79
2022/09/30 03:32:58;;;;;;;41.38;21.95;;;;;;;7.78;99.65;98645.06;8250547;28;20054;-80
2022/09/30 03:37:07;;;;;;;45.72;22.35;;;;;;;7.78;99.86;98650.44;8246160;28;20046;-80
2022/09/30 03:41:11;;;;;;;41.97;22.17;;;;;;;7.80;99.81;98648.28;8244188;28;20050;-80
2022/09/30 03:45:19;;;;;;;58.90;22.27;;;;;;;7.82;99.99;98651.47;8238175;28;20101;-80
2022/09/30 03:49:23;;;;;;;44.30;20.92;;;;;;;7.83;99.96;98653.03;8259430;28;20069;-80
2022/09/30 03:53:26;;;;;;;41.10;20.60;;;;;;;7.82;100.00;98640.72;8229799;28;20046;-80
2022/09/30 03:57:28;;;;;;;40.72;21.77;;;;;;;7.84;100.00;98651.16;8308871;28;20087;-80
2022/09/30 04:01:29;;;;;;;38.08;20.02;;;;;;;7.85;100.00;98650.84;8360920;28;20045;-80
2022/09/30 04:05:30;;;;;;;39.88;21.60;;;;;;;7.83;100.00;98647.66;8395205;28;20197;-80
2022/09/30 04:09:31;;;;;;;42.47;20.98;;;;;;;7.82;100.00;98651.47;8427756;28;20059;-80
2022/09/30 04:13:32;;;;;;;44.17;22.33;;;;;;;7.82;100.00;98648.78;8432978;28;20548;-80
2022/09/30 04:17:33;;;;;;;49.88;23.23;;;;;;;7.84;100.00;98662.69;8427644;28;20509;-80
2022/09/30 04:21:34;;;;;;;42.33;22.63;;;;;;;7.86;100.00;98668.59;8403904;28;20156;-79
2022/09/30 04:25:35;;;;;;;48.25;24.05;;;;;;;7.87;100.00;98664.00;8423572;28;20056;-80
2022/09/30 04:29:36;;;;;;;46.08;24.70;;;;;;;7.86;100.00;98665.09;8420523;28;20040;-80
2022/09/30 04:33:38;;;;;;;55.55;25.85;;;;;;;7.85;100.00;98664.28;8413540;28;20083;-78
2022/09/30 04:37:43;;;;;;;103.85;40.65;;;;;;;7.84;100.00;98670.75;8387556;28;20406;-79
2022/09/30 04:41:44;;;;;;;87.75;38.97;;;;;;;7.85;100.00;98661.59;8419018;28;20202;-78
2022/09/30 04:45:45;;;;;;;104.80;40.53;;;;;;;7.86;100.00;98663.19;8424560;28;20052;-79
2022/09/30 04:49:47;;;;;;;61.50;29.10;;;;;;;7.88;100.00;98657.50;8431241;28;20089;-80
2022/09/30 04:53:48;;;;;;;50.63;26.08;;;;;;;7.91;100.00;98671.16;8426627;28;20359;-79
2022/09/30 04:57:49;;;;;;;51.08;26.23;;;;;;;7.92;100.00;98671.97;8417699;28;20048;-78
2022/09/30 05:01:50;;;;;;;55.60;29.63;;;;;;;7.94;100.00;98675.91;8415564;28;20043;-78
2022/09/30 05:05:51;;;;;;;83.88;35.88;;;;;;;7.97;100.00;98686.09;8431182;28;20432;-79
2022/09/30 05:09:52;;;;;;;60.50;28.77;;;;;;;8.02;100.00;98688.66;8431056;28;20048;-79
2022/09/30 05:13:54;;;;;;;49.08;27.63;;;;;;;8.07;100.00;98693.94;8430969;28;20059;-81
2022/09/30 05:17:54;;;;;;;49.92;27.70;;;;;;;8.13;100.00;98704.59;8410525;28;20045;-79
2022/09/30 05:21:56;;;;;;;50.33;28.27;;;;;;;8.17;100.00;98710.94;8368797;28;20123;-79
2022/09/30 05:25:58;;;;;;;47.28;25.98;;;;;;;8.25;100.00;98731.75;8373568;28;20544;-79
2022/09/30 05:29:59;;;;;;;48.60;25.80;;;;;;;8.31;100.00;98727.88;8379295;28;20060;-79
2022/09/30 05:34:00;;;;;;;54.10;26.10;;;;;;;8.39;100.00;98740.63;8392846;28;20096;-79
2022/09/30 05:38:03;;;;;;;47.30;25.60;;;;;;;8.47;100.00;98742.59;8395675;28;20139;-79
2022/09/30 05:42:04;;;;;;;42.67;25.52;;;;;;;8.54;100.00;98734.91;8375272;28;20398;-80
2022/09/30 05:46:05;;;;;;;48.47;27.60;;;;;;;8.62;100.00;98739.53;8392069;28;20040;-80
2022/09/30 05:50:07;;;;;;;61.70;27.77;;;;;;;8.67;99.96;98742.13;8395861;28;20052;-80
2022/09/30 05:54:11;;;;;;;69.28;29.95;;;;;;;8.73;99.90;98757.06;8395741;28;20044;-80
2022/09/30 05:58:13;;;;;;;82.30;33.33;;;;;;;8.79;100.00;98766.59;8395809;28;20068;-80
2022/09/30 06:02:14;;;;;;;75.25;28.95;;;;;;;8.86;99.54;98767.00;8399591;28;20048;-80
2022/09/30 06:06:15;;;;;;;118.65;40.25;;;;;;;8.96;99.50;98765.16;8420696;28;20105;-80
2022/09/30 06:10:17;;;;;;;97.28;36.03;;;;;;;9.04;99.48;98761.72;8415656;28;20045;-82
2022/09/30 06:14:18;;;;;;;51.72;23.98;;;;;;;9.09;99.55;98750.84;8429317;28;20040;-81
2022/09/30 06:18:20;;;;;;;32.42;18.25;;;;;;;9.16;99.42;98770.03;8393635;28;20636;-80
2022/09/30 06:22:21;;;;;;;46.13;21.63;;;;;;;9.22;99.26;98766.91;8413177;28;20154;-82
2022/09/30 06:26:22;;;;;;;53.97;22.67;;;;;;;9.26;99.08;98772.47;8395192;28;20448;-80
2022/09/30 06:30:23;;;;;;;52.85;23.60;;;;;;;9.31;98.87;98783.13;8368122;28;20048;-80
2022/09/30 06:34:25;;;;;;;42.05;21.17;;;;;;;9.35;98.97;98794.91;8394712;28;20071;-81
2022/09/30 06:38:27;;;;;;;33.92;17.98;;;;;;;9.42;98.91;98787.16;8395030;28;20052;-80
2022/09/30 06:42:28;;;;;;;43.75;20.02;;;;;;;9.50;98.77;98786.41;8394879;28;20102;-80
2022/09/30 06:46:29;;;;;;;37.85;16.67;;;;;;;9.58;98.40;98788.34;8394720;28;20482;-81
2022/09/30 06:50:31;;;;;;;36.85;19.20;;;;;;;9.65;98.38;98799.50;8394711;28;20474;-81
2022/09/30 06:54:32;;;;;;;36.88;19.33;;;;;;;9.70;98.05;98812.84;8397826;28;20056;-81
2022/09/30 06:58:33;;;;;;;42.33;21.58;;;;;;;9.74;98.16;98808.44;8394842;28;20048;-81
2022/09/30 07:02:34;;;;;;;46.67;22.20;;;;;;;9.78;98.08;98813.22;8394561;28;20059;-81
2022/09/30 07:06:37;;;;;;;39.58;20.65;;;;;;;9.78;98.21;98824.00;8410554;28;20044;-80
2022/09/30 07:10:38;;;;;;;38.72;19.73;;;;;;;9.75;98.07;98815.41;8381395;28;20509;-80
2022/09/30 07:14:39;;;;;;;40.95;20.02;;;;;;;9.77;97.92;98822.41;8426839;28;20037;-81
2022/09/30 07:18:45;;;;;;;37.47;18.02;;;;;;;9.80;98.18;98827.16;8428940;28;20097;-83
2022/09/30 07:22:47;;;;;;;32.72;17.75;;;;;;;9.83;98.05;98821.16;8418614;28;20064;-81
2022/09/30 07:26:47;;;;;;;30.67;16.88;;;;;;;9.87;97.87;98832.91;8394884;28;20052;-81
2022/09/30 07:30:49;;;;;;;30.35;16.83;;;;;;;9.94;97.82;98838.69;8406494;28;20091;-81
2022/09/30 07:34:50;;;;;;;27.45;16.75;;;;;;;10.02;97.62;98840.59;8416686;28;20064;-81
2022/09/30 07:38:51;;;;;;;34.00;17.58;;;;;;;10.06;97.32;98841.56;8397420;28;20431;-81
2022/09/30 07:42:53;;;;;;;31.23;16.52;;;;;;;10.10;97.34;98848.72;8395881;28;20052;-81
2022/09/30 07:46:54;;;;;;;32.30;17.20;;;;;;;10.16;97.25;98852.09;8382394;28;20251;-80
2022/09/30 07:50:55;;;;;;;34.53;15.57;;;;;;;10.18;97.16;98863.41;8396926;28;20044;-80
2022/09/30 07:54:56;;;;;;;27.65;15.48;;;;;;;10.19;97.06;98870.38;8380064;28;20053;-80
2022/09/30 07:58:59;;;;;;;26.02;15.88;;;;;;;10.19;97.05;98873.09;8400284;28;20044;-80
2022/09/30 08:03:01;;;;;;;26.33;14.90;;;;;;;10.23;97.12;98874.06;8409181;28;20051;-81
2022/09/30 08:07:02;;;;;;;30.05;14.88;;;;;;;10.31;96.94;98875.97;8425053;28;20079;-81
2022/09/30 08:11:04;;;;;;;26.00;14.48;;;;;;;10.38;96.62;98876.31;8419890;28;20042;-82
2022/09/30 08:15:08;;;;;;;25.50;14.35;;;;;;;10.46;96.42;98889.06;8432095;28;20052;-81
2022/09/30 08:19:15;;;;;;;27.05;14.27;;;;;;;10.55;96.10;98881.78;8359522;28;20097;-81
2022/09/30 08:23:16;;;;;;;21.75;13.63;;;;;;;10.66;95.68;98892.28;8396575;28;20494;-82
2022/09/30 08:27:17;;;;;;;29.95;15.00;;;;;;;10.74;95.33;98894.19;8382001;28;20057;-81
2022/09/30 08:31:20;;;;;;;31.73;15.63;;;;;;;10.91;94.87;98892.34;8397589;28;20104;-82
2022/09/30 08:35:21;;;;;;;28.45;16.52;;;;;;;11.01;94.41;98899.34;8397823;28;20045;-82
2022/09/30 08:39:22;;;;;;;30.48;17.40;;;;;;;11.10;93.76;98897.47;8397878;28;20128;-83
2022/09/30 08:43:29;;;;;;;26.25;16.33;;;;;;;11.14;93.43;98898.41;8394035;28;20446;-81
2022/09/30 08:48:12;;;;;;;34.33;16.88;;;;;;;11.26;93.44;98906.66;8396142;28;20100;-80
2022/09/30 08:52:20;;;;;;;30.38;16.65;;;;;;;11.36;92.66;98917.19;8393464;28;20047;-81
2022/09/30 08:56:23;;;;;;;25.58;15.65;;;;;;;11.44;92.14;98913.69;8392555;28;20089;-81
2022/09/30 09:00:25;;;;;;;27.90;15.63;;;;;;;11.49;91.90;98915.44;8393265;28;20071;-81
2022/09/30 09:04:25;;;;;;;26.63;13.63;;;;;;;11.51;91.40;98920.53;8419004;28;20138;-82
2022/09/30 09:08:51;;;;;;;26.58;14.18;;;;;;;11.53;91.15;98920.97;8399704;28;20139;-82
2022/09/30 09:12:58;;;;;;;21.80;13.38;;;;;;;11.48;91.17;98918.44;8389981;28;20139;-82
2022/09/30 09:17:32;;;;;;;23.60;13.00;;;;;;;11.52;91.00;98924.81;8392625;28;20105;-82
2022/09/30 09:21:45;;;;;;;25.75;14.20;;;;;;;11.63;90.76;98928.81;8324688;28;20144;-81
2022/09/30 09:25:51;;;;;;;22.55;13.20;;;;;;;11.72;90.40;98924.16;8322766;28;20140;-82
2022/09/30 09:30:06;;;;;;;31.05;13.77;;;;;;;11.78;89.95;98928.34;8257233;28;20053;-81
2022/09/30 09:34:12;;;;;;;22.58;13.50;;;;;;;11.82;89.34;98918.44;8326432;28;20081;-81
2022/09/30 09:38:30;;;;;;;23.17;12.75;;;;;;;11.87;88.78;98926.41;8324367;28;20127;-82
2022/09/30 09:42:56;;;;;;;31.03;13.77;;;;;;;11.94;88.77;98926.72;8325656;28;20151;-81
2022/09/30 09:47:14;;;;;;;21.48;13.70;;;;;;;12.04;88.56;98937.19;8322835;28;20280;-81
2022/09/30 09:51:33;;;;;;;26.47;14.13;;;;;;;12.10;88.27;98935.13;8324615;28;20065;-82
2022/09/30 09:55:35;;;;;;;25.17;15.00;;;;;;;12.15;88.20;98943.84;8324624;28;20472;-82
2022/09/30 09:59:38;;;;;;;28.20;14.82;;;;;;;12.21;88.16;98947.97;8389417;28;20064;-80
2022/09/30 10:03:39;;;;;;;30.88;16.95;;;;;;;12.28;87.75;98945.56;8393998;28;20079;-81
2022/09/30 10:07:40;;;;;;;27.27;16.05;;;;;;;12.36;87.61;98945.88;8387998;28;20510;-82
2022/09/30 10:11:41;;;;;;;28.88;15.93;;;;;;;12.44;87.06;98950.44;8368037;28;20053;-81
2022/09/30 10:15:42;;;;;;;27.55;15.38;;;;;;;12.49;86.77;98950.25;8353404;28;20083;-82
2022/09/30 10:19:51;;;;;;;23.30;15.27;;;;;;;12.55;86.40;98957.09;8364399;28;20041;-81
2022/09/30 10:23:54;;;;;;;29.70;15.35;;;;;;;12.65;86.03;98956.72;8363197;28;20041;-81
2022/09/30 10:28:01;;;;;;;32.38;16.00;;;;;;;12.74;85.66;98959.41;8364659;28;20048;-81
2022/09/30 10:32:05;;;;;;;28.80;14.07;;;;;;;12.79;85.14;98957.31;8369468;28;20045;-81
2022/09/30 10:36:20;;;;;;;22.83;13.95;;;;;;;12.83;84.83;98957.44;8364682;28;20061;-81
2022/09/30 10:40:28;;;;;;;28.67;14.18;;;;;;;12.87;84.46;98959.19;8365474;28;20061;-81
2022/09/30 10:44:29;;;;;;;25.00;13.20;;;;;;;12.90;84.52;98953.09;8367737;28;20053;-81
2022/09/30 10:48:34;;;;;;;30.27;13.88;;;;;;;12.91;84.13;98954.69;8369582;28;20401;-82
2022/09/30 10:52:38;;;;;;;21.85;12.18;;;;;;;12.91;83.95;98949.25;8373311;28;20041;-82
2022/09/30 10:56:45;;;;;;;25.23;12.77;;;;;;;12.96;83.81;98950.97;8364769;28;20045;-81
2022/09/30 11:00:57;;;;;;;24.15;12.88;;;;;;;13.04;83.63;98953.66;8362851;28;20125;-81
2022/09/30 11:05:06;;;;;;;18.52;11.90;;;;;;;13.07;83.17;98947.56;8370300;28;20059;-81
2022/09/30 11:09:16;;;;;;;22.48;10.80;;;;;;;13.11;82.89;98948.53;8363746;28;20061;-82
2022/09/30 11:13:41;;;;;;;22.60;12.20;;;;;;;13.22;82.95;98948.16;8370330;28;20049;-82
2022/09/30 11:17:53;;;;;;;17.67;11.05;;;;;;;13.36;82.72;98937.84;8369758;28;20037;-80
2022/09/30 11:22:19;;;;;;;13.93;9.20;;;;;;;13.57;81.45;98943.28;8370477;28;20049;-81
2022/09/30 11:26:38;;;;;;;16.20;8.85;;;;;;;13.74;80.74;98929.56;8368317;28;20072;-81
2022/09/30 11:31:00;;;;;;;17.38;8.10;;;;;;;13.85;79.71;98936.94;8363871;28;20647;-81
2022/09/30 11:35:08;;;;;;;28.60;10.38;;;;;;;14.00;79.38;98935.53;8366756;28;20061;-80
2022/09/30 11:39:28;;;;;;;;;;;;;;;14.09;79.46;98943.56;8371496;28;20055;-80
2022/09/30 11:43:43;;;;;;;21.13;7.25;;;;;;;14.01;78.76;98949.91;8391343;28;20468;-80
2022/09/30 11:48:07;;;;;;;18.35;8.43;;;;;;;14.01;77.87;98958.03;8391207;28;20044;-80
2022/09/30 11:52:24;;;;;;;14.90;7.82;;;;;;;14.00;77.98;98961.88;8392604;28;20063;-80
2022/09/30 11:57:19;;;;;;;21.20;9.73;;;;;;;14.02;78.44;98960.41;8326379;28;20041;-81
2022/09/30 12:01:32;;;;;;;15.60;8.30;;;;;;;14.03;78.28;98955.78;8222520;28;20063;-82
2022/09/30 12:05:45;;;;;;;12.93;7.50;;;;;;;14.00;77.60;98956.44;8199427;28;20059;-82
2022/09/30 12:09:51;;;;;;;25.63;9.63;;;;;;;14.08;77.72;98958.28;8166698;29;20040;-81
2022/09/30 12:13:56;;;;;;;16.17;8.45;;;;;;;14.11;77.19;98963.84;8166916;29;20062;-81
2022/09/30 12:18:03;;;;;;;13.82;7.18;;;;;;;14.14;76.77;98956.94;8147915;29;20512;-82
2022/09/30 12:22:32;;;;;;;16.58;9.25;;;;;;;14.19;76.52;98959.44;8149714;29;20142;-82
2022/09/30 12:26:33;;;;;;;13.80;8.20;;;;;;;14.22;76.34;98977.78;8194647;28;20047;-80
2022/09/30 12:30:35;;;;;;;12.40;6.30;;;;;;;14.24;76.06;98961.94;8230824;28;20317;-82
2022/09/30 12:35:14;;;;;;;13.68;6.85;;;;;;;14.30;75.45;98971.47;8296054;28;20075;-81
2022/09/30 12:39:52;;;;;;;15.18;8.30;;;;;;;14.37;75.10;98982.63;8369042;28;20042;-81
2022/09/30 12:44:24;;;;;;;12.63;7.38;;;;;;;14.54;75.58;98976.19;8391135;28;20044;-82
2022/09/30 12:48:31;;;;;;;10.05;6.57;;;;;;;14.73;74.52;98974.50;8395614;28;20049;-82
2022/09/30 12:52:34;;;;;;;10.52;5.78;;;;;;;14.92;73.38;98970.41;8395539;28;20203;-82
2022/09/30 12:56:36;;;;;;;12.05;6.00;;;;;;;15.05;71.78;98966.56;8390038;28;20393;-81
2022/09/30 13:00:37;;;;;;;16.08;7.13;;;;;;;15.10;71.15;98960.91;8390026;28;20049;-81
2022/09/30 13:04:41;;;;;;;10.63;6.22;;;;;;;15.20;71.36;98965.88;8391656;28;20123;-82
2022/09/30 13:09:07;;;;;;;10.98;5.90;;;;;;;15.08;71.16;98969.41;8394173;28;20093;-82
2022/09/30 13:13:25;;;;;;;11.98;5.60;;;;;;;14.98;71.58;98964.41;8391795;28;20131;-81
2022/09/30 13:17:25;;;;;;;10.13;5.03;;;;;;;15.07;70.95;98967.81;8391904;28;20045;-81
2022/09/30 13:21:27;;;;;;;9.45;4.60;;;;;;;15.32;70.63;98957.72;8395089;28;20041;-82
2022/09/30 13:25:53;;;;;;;12.70;5.30;;;;;;;15.47;70.55;98965.16;8377285;28;20051;-82
2022/09/30 13:29:55;;;;;;;8.82;4.38;;;;;;;15.43;70.88;98969.69;8388854;28;20040;-82
2022/09/30 13:34:02;;;;;;;7.78;5.20;;;;;;;15.36;70.48;98958.59;8406102;28;20508;-82
2022/09/30 13:38:15;;;;;;;16.15;7.72;;;;;;;15.52;70.47;98962.22;8394022;28;20052;-82
2022/09/30 13:42:19;;;;;;;12.77;6.38;;;;;;;15.90;69.22;98966.41;8383405;28;20151;-83
2022/09/30 13:46:23;;;;;;;14.65;6.40;;;;;;;16.02;68.62;98971.81;8395273;28;20493;-83
2022/09/30 13:50:33;;;;;;;12.48;6.82;;;;;;;15.97;68.99;98964.66;8394614;28;20455;-82
2022/09/30 13:54:39;;;;;;;11.45;6.53;;;;;;;15.82;68.56;98965.41;8393458;28;20098;-81
2022/09/30 13:59:08;;;;;;;10.93;6.35;;;;;;;15.52;68.85;98975.81;8378971;28;20056;-82
2022/09/30 14:03:49;;;;;;;9.50;5.50;;;;;;;15.22;69.35;98979.94;8254848;28;20062;-81
2022/09/30 14:08:01;;;;;;;8.93;4.95;;;;;;;15.08;69.71;98971.31;8252166;28;20096;-82
2022/09/30 14:12:22;;;;;;;9.48;4.70;;;;;;;15.01;69.86;98973.84;8234050;28;20389;-84
2022/09/30 14:16:47;;;;;;;8.85;5.35;;;;;;;15.01;70.35;98979.28;8229015;28;20101;-83
2022/09/30 14:21:03;;;;;;;11.35;5.60;;;;;;;15.00;71.04;98972.25;8233590;28;20058;-82
2022/09/30 14:25:13;;;;;;;8.98;5.53;;;;;;;14.93;71.06;98966.56;8230629;28;20062;-81
2022/09/30 14:29:25;;;;;;;12.43;7.65;;;;;;;14.79;71.37;98972.38;8227559;28;20087;-83
2022/09/30 14:33:27;;;;;;;15.60;6.82;;;;;;;14.69;72.32;98968.19;8237376;28;20125;-83
2022/09/30 14:37:37;;;;;;;11.93;7.15;;;;;;;14.64;72.91;98960.25;8236299;28;20531;-83
2022/09/30 14:41:39;;;;;;;17.48;11.13;;;;;;;14.57;73.01;98970.88;8351138;28;20041;-83
2022/09/30 14:45:44;;;;;;;29.90;13.80;;;;;;;14.51;72.82;98979.56;8394281;28;20045;-83
2022/09/30 14:49:45;;;;;;;22.88;10.55;;;;;;;14.52;72.58;98973.81;8395000;28;20051;-81
2022/09/30 14:54:01;;;;;;;11.43;7.60;;;;;;;14.54;72.66;98976.97;8392813;28;20460;-83
2022/09/30 14:58:27;;;;;;;11.20;5.70;;;;;;;14.50;72.22;98986.94;8393501;28;20387;-82
2022/09/30 15:02:28;;;;;;;9.98;5.55;;;;;;;14.43;71.67;98981.28;8409701;28;20048;-82
2022/09/30 15:06:32;;;;;;;13.18;6.40;;;;;;;14.36;71.61;98986.44;8379791;28;20076;-83
2022/09/30 15:10:33;;;;;;;11.40;4.85;;;;;;;14.23;71.72;98984.78;8379654;28;20041;-83
2022/09/30 15:14:45;;;;;;;18.92;8.65;;;;;;;14.00;72.08;98991.75;8369729;28;20049;-83
2022/09/30 15:18:46;;;;;;;15.85;7.68;;;;;;;13.83;73.09;99001.63;8361755;28;20056;-83
2022/09/30 15:22:47;;;;;;;9.68;5.80;;;;;;;13.67;73.58;99008.00;8389392;28;20822;-82
2022/09/30 15:26:48;;;;;;;10.80;6.50;;;;;;;13.57;74.09;99020.03;8387925;28;20041;-81
2022/09/30 15:30:52;;;;;;;13.85;6.63;;;;;;;13.41;74.94;99005.47;8394294;28;20475;-82
2022/09/30 15:34:56;;;;;;;18.13;10.48;;;;;;;13.28;75.76;99011.91;8396238;28;20052;-82
2022/09/30 15:38:57;;;;;;;19.48;9.70;;;;;;;13.17;76.38;98997.16;8364621;28;20048;-82
2022/09/30 15:43:07;;;;;;;17.42;9.93;;;;;;;13.04;77.05;99002.47;8397571;28;20036;-83
2022/09/30 15:47:08;;;;;;;17.75;10.95;;;;;;;12.92;77.83;99021.31;8364009;28;20147;-83
2022/09/30 15:51:28;;;;;;;15.88;11.43;;;;;;;12.74;79.03;99025.25;8398390;28;20713;-83
2022/09/30 15:55:44;;;;;;;22.75;13.20;;;;;;;12.59;79.80;99023.03;8392812;28;20052;-83
2022/09/30 16:00:00;;;;;;;26.75;14.55;;;;;;;12.44;80.77;99031.69;8399660;28;20044;-83
2022/09/30 16:04:08;;;;;;;25.77;14.75;;;;;;;12.30;81.20;99031.09;8411871;28;20414;-83
2022/09/30 16:08:09;;;;;;;41.75;17.90;;;;;;;12.15;81.61;99025.06;8423211;28;20129;-83
2022/09/30 16:12:13;;;;;;;42.17;18.95;;;;;;;11.97;82.22;99023.47;8422267;28;20473;-83
2022/09/30 16:16:25;;;;;;;40.97;15.68;;;;;;;11.78;83.04;99009.50;8419805;28;20078;-83
2022/09/30 16:20:26;;;;;;;28.05;12.93;;;;;;;11.62;83.38;99005.63;8395390;28;20041;-83
2022/09/30 16:24:31;;;;;;;31.25;14.05;;;;;;;11.46;84.34;99018.03;8431710;28;20071;-83
2022/09/30 16:28:31;;;;;;;24.73;14.25;;;;;;;11.30;84.67;99023.91;8422371;28;20511;-83
2022/09/30 16:32:37;;;;;;;42.30;23.10;;;;;;;11.16;85.23;99035.91;8418096;28;20048;-82
2022/09/30 16:36:38;;;;;;;42.92;22.58;;;;;;;11.00;85.65;99044.47;8417388;28;20041;-82
2022/09/30 16:40:39;;;;;;;73.07;32.85;;;;;;;10.87;85.94;99049.97;8411679;28;20140;-82
2022/09/30 16:44:43;;;;;;;117.68;43.28;;;;;;;10.74;85.99;99050.88;8394065;28;20044;-82
2022/09/30 16:48:44;;;;;;;141.35;55.05;;;;;;;10.59;86.44;99058.25;8397259;28;20075;-83
2022/09/30 16:52:45;;;;;;;86.95;39.63;;;;;;;10.49;86.83;99061.22;8400075;28;20498;-82
2022/09/30 16:56:46;;;;;;;79.10;30.13;;;;;;;10.40;87.07;99073.88;8397241;28;20036;-82
2022/09/30 17:00:47;;;;;;;32.50;16.73;;;;;;;10.28;87.27;99060.16;8395935;28;20060;-82
2022/09/30 17:04:48;;;;;;;47.45;22.08;;;;;;;10.16;87.36;99057.19;8412790;28;20134;-81
2022/09/30 17:08:49;;;;;;;50.22;20.40;;;;;;;10.07;87.74;99059.00;8422390;28;20143;-82
2022/09/30 17:12:50;;;;;;;29.63;15.20;;;;;;;9.98;87.71;99077.03;8361666;28;20041;-82
2022/09/30 17:16:52;;;;;;;31.77;15.32;;;;;;;9.91;87.83;99077.44;8397182;28;20036;-82
2022/09/30 17:20:53;;;;;;;29.55;16.83;;;;;;;9.81;88.02;99076.88;8377597;28;20044;-82
2022/09/30 17:24:54;;;;;;;28.08;14.48;;;;;;;9.74;88.19;99072.69;8396008;28;20402;-81
2022/09/30 17:28:55;;;;;;;27.20;16.27;;;;;;;9.67;88.14;99072.34;8391484;28;20561;-81
2022/09/30 17:32:56;;;;;;;37.10;21.02;;;;;;;9.62;88.19;99080.50;8395546;28;20055;-81
2022/09/30 17:36:58;;;;;;;35.60;21.13;;;;;;;9.57;88.16;99083.31;8394597;28;20044;-81
2022/09/30 17:45:19;;;;;;;39.55;20.45;;;;;;;9.54;88.27;99105.50;8393778;28;20120;-81
2022/09/30 17:49:21;;;;;;;39.22;19.83;;;;;;;9.51;88.45;99100.72;8393389;28;20071;-81
2022/09/30 17:53:23;;;;;;;36.83;19.95;;;;;;;9.43;88.54;99098.72;8395412;28;20110;-81
2022/09/30 17:57:24;;;;;;;32.78;18.85;;;;;;;9.38;88.83;99096.13;8394886;28;20078;-81
2022/09/30 18:01:25;;;;;;;39.03;20.05;;;;;;;9.33;88.95;99090.84;8394729;28;20041;-81
2022/09/30 18:05:26;;;;;;;51.20;20.63;;;;;;;9.30;89.03;99099.53;8397554;28;20045;-81
2022/09/30 18:09:28;;;;;;;49.25;21.00;;;;;;;9.25;89.01;99092.34;8429011;28;20051;-81
2022/09/30 18:13:29;;;;;;;47.08;23.77;;;;;;;9.24;89.29;99106.13;8424703;28;20127;-81
2022/09/30 18:17:30;;;;;;;48.08;23.67;;;;;;;9.29;89.52;99114.09;8406263;28;20123;-81
2022/09/30 18:21:52;;;;;;;41.45;26.30;;;;;;;9.31;89.77;99109.19;8405720;28;20040;-82
2022/09/30 18:25:54;;;;;;;47.35;26.98;;;;;;;9.30;89.70;99115.72;8319287;28;20580;-81
2022/09/30 18:29:56;;;;;;;50.53;26.38;;;;;;;9.26;89.98;99106.59;8323762;28;20464;-81
2022/09/30 18:33:58;;;;;;;46.80;26.25;;;;;;;9.21;90.18;99117.47;8323872;28;20135;-81
2022/09/30 18:37:59;;;;;;;49.15;26.67;;;;;;;9.19;90.22;99108.91;8324217;28;20092;-81
2022/09/30 18:42:02;;;;;;;46.92;25.10;;;;;;;9.14;90.19;99111.72;8324055;28;20068;-82
2022/09/30 18:46:05;;;;;;;51.58;27.52;;;;;;;9.09;90.54;99098.34;8323564;28;20097;-81
2022/09/30 18:50:12;;;;;;;52.55;28.23;;;;;;;9.11;90.45;99101.50;8306519;28;20045;-80
2022/09/30 18:54:15;;;;;;;63.70;30.38;;;;;;;9.13;90.78;99100.13;8322367;28;20558;-81
2022/09/30 18:58:17;;;;;;;49.08;27.02;;;;;;;9.12;90.82;99092.34;8322653;28;20119;-81
2022/09/30 19:02:23;;;;;;;46.35;26.02;;;;;;;9.15;90.92;99102.50;8350806;28;20044;-80
2022/09/30 19:06:24;;;;;;;48.13;26.77;;;;;;;9.16;91.08;99104.13;8420193;28;20548;-80